Time;durP1;ratioP1;P1;durP2;ratioP2;P2;SDS_P1;SDS_P2;PMS_P1;PMS_P2;Temp;Humidity;BMP_temperature;BMP_pressure;BME280_temperature;BME280_humidity;BME280_pressure;Samples;Min_cycle;Max_cycle;Signal;HPM_P1;HPM_P2
2024/02/26 00:00:08;;;;;;;6.80;2.60;;;;;;;0.79;56.24;100536.66;5059354;28;20705;-52
2024/02/26 00:02:37;;;;;;;6.55;2.35;;;;;;;0.78;56.37;100540.94;5026506;28;20045;-49
2024/02/26 00:05:06;;;;;;;4.00;2.10;;;;;;;0.56;56.01;100505.53;5036894;28;20034;-50
2024/02/26 00:07:31;;;;;;;9.98;2.55;;;;;;;0.75;55.53;100534.88;5020852;28;20036;-48
2024/02/26 00:09:57;;;;;;;5.97;2.40;;;;;;;0.77;55.28;100541.78;5058660;28;20607;-48
2024/02/26 00:12:23;;;;;;;7.00;2.42;;;;;;;0.76;55.21;100542.59;5026221;28;20045;-49
2024/02/26 00:14:49;;;;;;;4.57;1.95;;;;;;;0.77;55.42;100544.34;5024510;28;20046;-47
2024/02/26 00:17:16;;;;;;;4.68;2.20;;;;;;;0.79;55.29;100531.53;5042298;28;20461;-50
2024/02/26 00:19:41;;;;;;;5.65;2.38;;;;;;;0.76;54.87;100532.38;5032911;28;20123;-50
2024/02/26 00:22:08;;;;;;;9.98;2.20;;;;;;;0.77;55.51;100523.00;5041593;28;20129;-52
2024/02/26 00:24:34;;;;;;;4.80;1.73;;;;;;;0.82;54.83;100536.72;5023714;28;20165;-52
2024/02/26 00:26:59;;;;;;;4.35;2.15;;;;;;;0.60;54.82;100504.75;5012255;28;20603;-54
2024/02/26 00:29:25;;;;;;;4.40;2.42;;;;;;;0.72;55.10;100520.34;5024951;28;20048;-49
2024/02/26 00:31:51;;;;;;;4.50;2.00;;;;;;;0.74;55.10;100543.38;5042175;28;20060;-52
2024/02/26 00:34:17;;;;;;;5.18;2.10;;;;;;;0.69;54.74;100534.75;5023782;28;20417;-52
2024/02/26 00:36:43;;;;;;;3.65;1.60;;;;;;;0.75;54.60;100534.88;5004243;28;20050;-48
2024/02/26 00:39:09;;;;;;;5.38;1.73;;;;;;;0.77;54.92;100536.66;5021088;28;20041;-50
2024/02/26 00:41:39;;;;;;;5.45;2.47;;;;;;;0.71;54.49;100528.84;5040191;28;20045;-50
2024/02/26 00:44:05;;;;;;;4.68;1.95;;;;;;;0.72;54.79;100524.59;5006534;28;20073;-51
2024/02/26 00:46:31;;;;;;;6.47;2.20;;;;;;;0.68;54.23;100528.78;5024282;28;20535;-52
2024/02/26 00:48:57;;;;;;;4.45;2.55;;;;;;;0.68;54.70;100523.66;5025928;28;20041;-49
2024/02/26 00:51:23;;;;;;;3.10;1.60;;;;;;;0.49;54.70;100487.47;5024107;28;20159;-51
2024/02/26 00:53:49;;;;;;;4.10;1.58;;;;;;;0.66;54.52;100527.91;5057236;28;20085;-50
2024/02/26 00:56:14;;;;;;;6.88;2.50;;;;;;;0.60;54.56;100530.34;5023373;28;20558;-51
2024/02/26 00:58:42;;;;;;;3.42;1.67;;;;;;;0.60;54.51;100521.81;5029165;28;20041;-52
2024/02/26 01:01:09;;;;;;;5.30;2.25;;;;;;;0.64;54.79;100515.91;5025830;28;20053;-53
2024/02/26 01:03:35;;;;;;;4.78;2.03;;;;;;;0.64;54.63;100515.91;5023783;28;20048;-52
2024/02/26 01:06:01;;;;;;;7.07;2.00;;;;;;;0.45;54.81;100486.56;5026243;28;20043;-48
2024/02/26 01:08:27;;;;;;;5.45;2.35;;;;;;;0.70;54.83;100516.03;5031737;28;20033;-50
2024/02/26 01:10:53;;;;;;;8.63;2.00;;;;;;;0.70;54.75;100522.00;5023840;28;21338;-49
2024/02/26 01:13:19;;;;;;;4.35;2.00;;;;;;;0.75;54.89;100519.53;5057858;28;20041;-48
2024/02/26 01:15:45;;;;;;;3.38;1.58;;;;;;;0.54;54.76;100478.19;5015694;28;20267;-49
2024/02/26 01:18:12;;;;;;;6.35;2.28;;;;;;;0.75;54.74;100516.97;5025146;28;20037;-51
2024/02/26 01:20:38;;;;;;;3.85;1.65;;;;;;;0.69;54.42;100520.28;5024225;28;20695;-51
2024/02/26 01:23:04;;;;;;;12.40;2.28;;;;;;;0.40;54.78;100483.91;5030844;28;20037;-50
2024/02/26 01:25:30;;;;;;;3.60;1.42;;;;;;;0.61;55.00;100519.28;5032122;28;20041;-48
2024/02/26 01:27:56;;;;;;;5.18;2.40;;;;;;;0.57;54.76;100517.50;5024750;28;20091;-50
2024/02/26 01:30:22;;;;;;;5.68;1.90;;;;;;;0.56;54.72;100525.13;5028606;28;20041;-54
2024/02/26 01:32:48;;;;;;;3.15;1.88;;;;;;;0.60;54.53;100521.81;5017184;28;20044;-50
2024/02/26 01:35:14;;;;;;;3.58;1.90;;;;;;;0.42;54.91;100491.59;5040804;28;20509;-50
2024/02/26 01:37:41;;;;;;;7.45;1.85;;;;;;;0.61;54.40;100523.53;5027816;28;20041;-48
2024/02/26 01:40:09;;;;;;;4.20;1.73;;;;;;;0.62;54.46;100530.38;5025671;28;20041;-51
2024/02/26 01:42:35;;;;;;;7.75;1.90;;;;;;;0.51;54.59;100501.16;5040795;28;20044;-50
2024/02/26 01:45:02;;;;;;;3.28;1.63;;;;;;;0.61;54.51;100528.66;5040413;28;20033;-48
2024/02/26 01:47:31;;;;;;;2.88;1.55;;;;;;;0.58;54.52;100521.75;5040656;28;20566;-48
2024/02/26 01:49:57;;;;;;;3.13;1.70;;;;;;;0.57;54.58;100514.09;4990797;28;20640;-49
2024/02/26 01:52:23;;;;;;;4.20;1.40;;;;;;;0.61;54.66;100519.28;5024328;28;20827;-51
2024/02/26 01:54:50;;;;;;;6.95;2.20;;;;;;;0.61;54.57;100509.03;5025420;28;20037;-49
2024/02/26 01:57:16;;;;;;;4.68;1.77;;;;;;;0.60;54.43;100514.13;5026112;28;20125;-50
2024/02/26 01:59:42;;;;;;;3.63;1.70;;;;;;;0.61;54.50;100505.63;5024883;28;20033;-49
2024/02/26 02:02:09;;;;;;;5.18;1.75;;;;;;;0.68;54.72;100507.47;5024384;28;20045;-48
2024/02/26 02:04:35;;;;;;;3.10;1.67;;;;;;;0.69;54.31;100507.47;5025594;28;20049;-50
2024/02/26 02:07:01;;;;;;;4.88;1.70;;;;;;;0.69;54.22;100497.25;5037897;28;20063;-47
2024/02/26 02:09:28;;;;;;;2.90;1.60;;;;;;;0.47;54.17;100464.44;5035578;28;20049;-53
2024/02/26 02:11:54;;;;;;;6.15;1.35;;;;;;;0.60;54.27;100507.31;5018635;28;20048;-52
2024/02/26 02:14:22;;;;;;;4.85;1.73;;;;;;;0.53;53.85;100495.22;5040436;28;20478;-50
2024/02/26 02:16:48;;;;;;;1.63;1.13;;;;;;;0.53;54.08;100497.78;5015312;28;20044;-49
2024/02/26 02:19:15;;;;;;;5.10;1.88;;;;;;;0.26;53.67;100466.59;5025574;28;20041;-50
2024/02/26 02:21:41;;;;;;;3.65;1.70;;;;;;;0.46;53.73;100507.88;5038769;28;20048;-51
2024/02/26 02:24:07;;;;;;;3.38;1.70;;;;;;;0.30;53.99;100478.59;5014572;28;20124;-48
2024/02/26 02:26:33;;;;;;;2.88;1.70;;;;;;;0.34;53.78;100494.03;5029490;28;20145;-49
2024/02/26 02:28:59;;;;;;;1.80;1.25;;;;;;;0.31;54.07;100493.97;5057399;28;20049;-51
2024/02/26 02:31:26;;;;;;;4.43;1.55;;;;;;;0.31;53.96;100488.88;5007411;28;20049;-53
2024/02/26 02:33:51;;;;;;;7.13;1.92;;;;;;;0.36;54.37;100494.94;5039957;28;20158;-50
2024/02/26 02:36:18;;;;;;;5.20;1.55;;;;;;;0.37;54.11;100493.22;5022198;28;20769;-48
2024/02/26 02:38:51;;;;;;;2.80;1.67;;;;;;;0.40;54.32;100509.50;5005762;28;20041;-47
2024/02/26 02:41:19;;;;;;;3.95;1.60;;;;;;;0.36;54.08;100491.50;5022887;28;20064;-49
2024/02/26 02:43:45;;;;;;;3.53;1.33;;;;;;;0.25;54.13;100470.84;5020115;28;20038;-50
2024/02/26 02:46:11;;;;;;;2.88;1.00;;;;;;;0.38;54.00;100495.81;4989584;28;20048;-52
2024/02/26 02:48:38;;;;;;;2.30;1.10;;;;;;;0.35;53.98;100500.88;5022652;28;20501;-53
2024/02/26 02:51:04;;;;;;;7.05;1.67;;;;;;;0.18;53.58;100468.97;5022788;28;20068;-52
2024/02/26 02:53:30;;;;;;;3.70;1.40;;;;;;;0.35;54.02;100492.34;5042684;28;20516;-53
2024/02/26 02:55:56;;;;;;;3.60;1.38;;;;;;;0.27;53.61;100481.94;5027564;28;20119;-52
2024/02/26 02:58:24;;;;;;;3.20;1.05;;;;;;;0.35;53.37;100505.13;5026310;28;20631;-51
2024/02/26 03:00:50;;;;;;;2.55;1.35;;;;;;;0.30;53.64;100487.13;5027191;28;20080;-52
2024/02/26 03:03:16;;;;;;;2.80;1.27;;;;;;;0.19;53.57;100478.38;5027637;28;20428;-48
2024/02/26 03:05:42;;;;;;;3.97;1.77;;;;;;;0.21;53.23;100484.38;5028182;28;20382;-52
2024/02/26 03:08:09;;;;;;;3.17;1.27;;;;;;;0.23;53.42;100495.50;5043790;28;20568;-50
2024/02/26 03:10:35;;;;;;;2.90;1.38;;;;;;;0.17;53.58;100489.41;5028438;28;20497;-49
2024/02/26 03:13:01;;;;;;;2.63;1.52;;;;;;;0.21;53.23;100488.66;5060192;28;20063;-51
2024/02/26 03:15:26;;;;;;;6.38;1.38;;;;;;;0.18;53.26;100491.13;5016591;28;20591;-52
2024/02/26 03:17:52;;;;;;;4.22;1.55;;;;;;;0.16;53.65;100480.03;5026608;28;20045;-49
2024/02/26 03:20:19;;;;;;;3.20;1.52;;;;;;;0.19;53.54;100480.94;5042659;28;20045;-52
2024/02/26 03:22:48;;;;;;;;;;;;;;;0.13;53.54;100462.06;5028632;28;20092;-48
2024/02/26 03:25:14;;;;;;;5.78;1.80;;;;;;;0.15;54.03;100468.06;5028442;28;19916;-49
2024/02/26 03:27:40;;;;;;;3.63;1.25;;;;;;;0.20;54.07;100481.81;5059477;28;20148;-51
2024/02/26 03:30:06;;;;;;;3.90;1.40;;;;;;;0.16;53.88;100478.31;5059785;28;20618;-48
2024/02/26 03:32:32;;;;;;;7.63;1.70;;;;;;;0.21;54.43;100484.38;5008882;28;20060;-51
2024/02/26 03:34:59;;;;;;;2.88;0.90;;;;;;;0.20;53.97;100469.88;5006543;28;20041;-53
2024/02/26 03:37:25;;;;;;;4.60;1.40;;;;;;;-0.03;54.05;100440.44;5022113;28;20045;-51
2024/02/26 03:39:51;;;;;;;2.25;1.33;;;;;;;0.19;54.15;100472.41;5025049;28;20049;-52
2024/02/26 03:42:17;;;;;;;2.33;1.27;;;;;;;-0.06;54.06;100437.81;5038783;28;20544;-50
2024/02/26 03:44:43;;;;;;;3.75;1.75;;;;;;;0.16;54.39;100487.69;5025887;28;20528;-51
2024/02/26 03:47:09;;;;;;;2.72;1.63;;;;;;;0.12;54.27;100473.97;5026102;28;20076;-49
2024/02/26 03:49:36;;;;;;;1.75;1.00;;;;;;;0.02;54.31;100464.38;5025785;28;20041;-52
2024/02/26 03:52:02;;;;;;;3.78;1.35;;;;;;;0.12;54.11;100473.97;5026878;28;20041;-53
2024/02/26 03:54:28;;;;;;;3.33;1.20;;;;;;;0.11;54.07;100476.47;5026057;28;20044;-53
2024/02/26 03:56:55;;;;;;;3.88;1.48;;;;;;;0.10;54.18;100488.44;5026459;28;20042;-54
2024/02/26 03:59:23;;;;;;;2.55;1.20;;;;;;;0.09;54.17;100478.16;5058560;28;20041;-49
2024/02/26 04:01:49;;;;;;;5.03;1.03;;;;;;;0.09;54.22;100480.72;5024029;28;20048;-53
2024/02/26 04:04:15;;;;;;;4.97;1.40;;;;;;;-0.13;54.46;100451.31;5024797;28;20322;-50
2024/02/26 04:06:45;;;;;;;3.47;1.25;;;;;;;0.00;54.13;100466.06;5011926;28;20136;-52
2024/02/26 04:09:16;;;;;;;2.53;1.38;;;;;;;0.07;54.51;100479.81;5026212;28;20041;-51
2024/02/26 04:11:43;;;;;;;3.25;1.40;;;;;;;0.06;54.63;100472.97;5025759;28;20076;-50
2024/02/26 04:14:11;;;;;;;3.95;1.38;;;;;;;0.04;54.53;100478.06;5026257;28;20045;-53
2024/02/26 04:16:37;;;;;;;4.07;1.20;;;;;;;0.06;54.12;100480.63;5018195;28;20160;-53
2024/02/26 04:19:04;;;;;;;4.13;1.52;;;;;;;0.08;54.84;100476.44;5024424;28;20132;-52
2024/02/26 04:21:30;;;;;;;3.72;1.50;;;;;;;0.07;54.53;100485.78;5024304;28;20132;-52
2024/02/26 04:23:56;;;;;;;4.25;1.25;;;;;;;0.01;54.50;100478.00;5026324;28;20128;-49
2024/02/26 04:26:22;;;;;;;4.25;1.58;;;;;;;0.00;54.92;100474.56;5009515;28;20033;-53
2024/02/26 04:28:48;;;;;;;7.90;1.60;;;;;;;-0.03;54.70;100479.63;5023919;28;20065;-51
2024/02/26 04:31:14;;;;;;;3.42;1.75;;;;;;;-0.07;54.71;100472.75;5027119;28;20559;-54
2024/02/26 04:33:41;;;;;;;5.97;1.60;;;;;;;0.00;54.80;100477.13;5008321;28;20056;-51
2024/02/26 04:36:14;;;;;;;5.50;1.50;;;;;;;-0.03;55.32;100482.19;5007100;28;20521;-51
2024/02/26 04:38:40;;;;;;;6.18;1.63;;;;;;;-0.04;54.73;100477.91;5022860;28;20045;-53
2024/02/26 04:41:05;;;;;;;9.35;1.60;;;;;;;-0.01;54.89;100478.00;5025715;28;20124;-53
2024/02/26 04:43:31;;;;;;;3.50;1.40;;;;;;;-0.01;55.20;100483.09;5039844;28;20068;-51
2024/02/26 04:45:57;;;;;;;3.17;1.90;;;;;;;-0.05;55.20;100494.06;5025932;28;20115;-52
2024/02/26 04:48:23;;;;;;;4.72;2.22;;;;;;;-0.11;55.09;100481.19;5027088;28;20094;-53
2024/02/26 04:50:49;;;;;;;2.15;1.48;;;;;;;-0.14;55.25;100475.13;5024358;28;20041;-54
2024/02/26 04:53:15;;;;;;;4.50;1.55;;;;;;;-0.11;55.50;100478.63;5026597;28;20041;-54
2024/02/26 04:55:41;;;;;;;3.45;1.38;;;;;;;-0.10;55.39;100482.88;5022700;28;20045;-54
2024/02/26 04:58:07;;;;;;;3.78;1.75;;;;;;;-0.10;55.49;100480.31;5056849;28;20103;-52
2024/02/26 05:00:32;;;;;;;4.18;1.77;;;;;;;-0.28;55.77;100450.97;5024035;28;20472;-56
2024/02/26 05:02:59;;;;;;;3.30;1.67;;;;;;;-0.13;55.70;100480.28;5040765;28;20148;-53
2024/02/26 05:05:25;;;;;;;7.28;1.80;;;;;;;-0.10;55.81;100479.47;5026126;28;20041;-53
2024/02/26 05:07:50;;;;;;;4.85;1.50;;;;;;;-0.11;55.70;100481.19;5025228;28;20041;-53
2024/02/26 05:10:16;;;;;;;2.97;1.67;;;;;;;-0.10;55.92;100472.66;5020692;28;20045;-53
2024/02/26 05:12:44;;;;;;;3.35;1.65;;;;;;;0.02;55.68;100469.50;5019690;28;20053;-54
2024/02/26 05:15:10;;;;;;;4.05;1.58;;;;;;;0.08;55.69;100471.31;5021089;28;20033;-52
2024/02/26 05:17:35;;;;;;;5.47;1.80;;;;;;;0.07;55.83;100475.56;5025103;28;20500;-51
2024/02/26 05:20:02;;;;;;;4.38;1.55;;;;;;;0.07;55.83;100479.81;5024688;28;20053;-53
2024/02/26 05:22:29;;;;;;;5.28;1.85;;;;;;;-0.03;55.70;100466.84;5023323;28;20454;-50
2024/02/26 05:24:56;;;;;;;4.75;1.90;;;;;;;-0.01;56.16;100478.00;5024557;28;20033;-52
2024/02/26 05:27:22;;;;;;;3.55;1.27;;;;;;;0.05;55.78;100468.72;5024021;28;20103;-48
2024/02/26 05:29:48;;;;;;;3.58;1.85;;;;;;;0.04;55.92;100487.44;5023572;28;20049;-48
2024/02/26 05:32:14;;;;;;;5.22;1.70;;;;;;;-0.02;56.05;100467.72;5023832;28;20048;-51
2024/02/26 05:34:41;;;;;;;2.42;1.25;;;;;;;-0.16;56.10;100438.47;5025041;28;20075;-49
2024/02/26 05:37:07;;;;;;;3.83;1.70;;;;;;;0.00;56.16;100469.47;5025145;28;20516;-49
2024/02/26 05:39:33;;;;;;;5.90;2.42;;;;;;;-0.01;56.45;100466.91;5025558;28;20428;-46
2024/02/26 05:41:59;;;;;;;1.83;1.05;;;;;;;-0.01;56.17;100470.31;5024170;28;20041;-47
2024/02/26 05:44:26;;;;;;;4.28;1.65;;;;;;;0.00;56.27;100466.06;5025473;28;20037;-48
2024/02/26 05:46:52;;;;;;;6.97;2.28;;;;;;;-0.12;56.31;100430.03;5007263;28;21157;-53
2024/02/26 05:49:18;;;;;;;3.92;1.38;;;;;;;0.13;56.49;100462.06;5022371;28;20512;-52
2024/02/26 05:51:45;;;;;;;6.43;1.92;;;;;;;-0.08;56.24;100424.13;4989776;28;20041;-50
2024/02/26 05:54:11;;;;;;;4.00;1.83;;;;;;;0.10;56.29;100477.34;5025534;28;20091;-52
2024/02/26 05:56:37;;;;;;;5.75;2.08;;;;;;;0.08;56.20;100471.31;5023979;28;20037;-51
2024/02/26 05:59:03;;;;;;;4.85;1.80;;;;;;;-0.23;56.28;100408.50;4987190;28;20052;-48
2024/02/26 06:01:29;;;;;;;4.15;1.60;;;;;;;0.25;56.35;100468.28;5012972;28;20464;-47
2024/02/26 06:03:54;;;;;;;3.97;1.73;;;;;;;0.38;56.15;100466.81;5025613;28;20407;-48
2024/02/26 06:06:22;;;;;;;8.50;3.08;;;;;;;0.40;56.40;100483.06;5024040;28;20065;-47
2024/02/26 06:08:49;;;;;;;4.03;1.80;;;;;;;0.43;56.17;100476.28;5022951;28;20055;-50
2024/02/26 06:11:15;;;;;;;6.05;2.25;;;;;;;0.43;56.05;100472.88;5037401;28;20042;-50
2024/02/26 06:13:40;;;;;;;6.70;2.42;;;;;;;0.39;56.05;100464.28;5023871;28;20041;-49
2024/02/26 06:16:08;;;;;;;5.00;2.38;;;;;;;0.37;56.30;100473.63;5024945;28;20041;-48
2024/02/26 06:18:34;;;;;;;5.93;2.53;;;;;;;0.38;56.36;100474.47;5006862;28;20126;-49
2024/02/26 06:21:00;;;;;;;5.15;2.08;;;;;;;0.43;56.61;100499.31;5024722;28;20802;-50
2024/02/26 06:23:26;;;;;;;4.53;2.40;;;;;;;0.41;56.29;100484.78;5006844;28;20056;-49
2024/02/26 06:25:52;;;;;;;5.97;2.65;;;;;;;0.05;56.09;100431.25;5025052;28;20662;-52
2024/02/26 06:28:19;;;;;;;7.18;3.17;;;;;;;0.39;56.73;100479.63;5028443;28;20615;-47
2024/02/26 06:30:46;;;;;;;7.70;2.55;;;;;;;0.41;56.19;100472.88;5058275;28;20042;-50
2024/02/26 06:33:12;;;;;;;8.38;2.25;;;;;;;0.28;56.24;100445.31;5060515;28;20041;-48
2024/02/26 06:35:38;;;;;;;3.22;1.42;;;;;;;0.49;55.97;100500.25;5028811;28;20124;-47
2024/02/26 06:38:04;;;;;;;4.63;2.30;;;;;;;0.01;56.19;100416.66;5026563;28;20041;-51
2024/02/26 06:40:30;;;;;;;5.10;2.30;;;;;;;0.40;56.74;100483.06;5060902;28;20120;-48
2024/02/26 06:42:56;;;;;;;4.05;2.17;;;;;;;0.39;56.53;100471.97;5029264;28;20131;-48
2024/02/26 06:45:22;;;;;;;9.18;2.97;;;;;;;0.50;56.66;100491.75;5060881;28;20041;-50
2024/02/26 06:47:48;;;;;;;3.50;1.48;;;;;;;0.39;56.08;100450.63;5009993;28;20029;-46
2024/02/26 06:50:14;;;;;;;4.05;2.10;;;;;;;0.61;56.28;100473.22;5028567;28;20053;-46
2024/02/26 06:52:40;;;;;;;4.95;2.35;;;;;;;0.61;56.21;100475.78;5026871;28;20049;-47
2024/02/26 06:55:08;;;;;;;4.75;1.83;;;;;;;0.63;56.16;100478.38;5027944;28;20061;-49
2024/02/26 06:57:34;;;;;;;4.95;2.15;;;;;;;0.64;56.20;100490.31;5011039;28;20038;-48
2024/02/26 07:00:00;;;;;;;11.07;2.90;;;;;;;0.56;56.06;100476.53;5043861;28;20523;-50
2024/02/26 07:02:26;;;;;;;4.72;2.08;;;;;;;0.53;55.93;100479.00;5028734;28;20052;-47
2024/02/26 07:04:52;;;;;;;5.95;2.65;;;;;;;0.65;56.20;100480.13;5026436;28;20072;-50
2024/02/26 07:07:18;;;;;;;3.75;2.25;;;;;;;0.49;55.96;100455.09;5026993;28;20096;-49
2024/02/26 07:09:44;;;;;;;5.18;2.28;;;;;;;0.71;56.01;100469.13;5024984;28;20041;-49
2024/02/26 07:12:10;;;;;;;9.75;2.55;;;;;;;0.69;55.68;100474.22;5043579;28;20060;-50
2024/02/26 07:14:37;;;;;;;3.40;1.70;;;;;;;0.69;55.57;100486.13;5024736;28;20084;-49
2024/02/26 07:17:03;;;;;;;4.75;2.30;;;;;;;0.77;55.86;100482.91;5032050;28;20045;-50
2024/02/26 07:19:29;;;;;;;5.03;2.42;;;;;;;0.95;55.57;100468.69;5033528;28;20045;-51
2024/02/26 07:21:55;;;;;;;7.18;2.55;;;;;;;1.02;55.31;100486.75;5027601;28;20053;-46
2024/02/26 07:24:21;;;;;;;6.95;2.45;;;;;;;1.05;55.51;100473.97;5009724;28;20041;-48
2024/02/26 07:26:47;;;;;;;5.15;2.63;;;;;;;1.33;55.34;100466.75;5026663;28;20045;-49
2024/02/26 07:29:13;;;;;;;6.03;2.67;;;;;;;1.60;55.05;100474.84;5027056;28;20489;-50
2024/02/26 07:31:39;;;;;;;7.05;3.20;;;;;;;1.91;54.65;100443.66;5026539;28;20041;-46
2024/02/26 07:34:05;;;;;;;8.43;3.22;;;;;;;2.40;53.86;100475.03;5026925;28;20218;-47
2024/02/26 07:36:31;;;;;;;12.98;2.70;;;;;;;2.56;52.91;100471.78;5010597;28;20516;-49
2024/02/26 07:38:56;;;;;;;9.52;3.20;;;;;;;2.89;52.83;100469.53;5020688;28;20527;-45
2024/02/26 07:41:22;;;;;;;7.78;2.90;;;;;;;3.13;52.25;100468.91;5021350;28;20041;-51
2024/02/26 07:43:48;;;;;;;12.25;2.95;;;;;;;3.14;51.91;100478.28;5027460;28;20592;-49
2024/02/26 07:46:14;;;;;;;7.72;2.97;;;;;;;2.95;51.57;100433.63;5026283;28;20038;-49
2024/02/26 07:48:41;;;;;;;5.07;2.50;;;;;;;3.41;51.52;100475.09;4993068;28;20045;-48
2024/02/26 07:51:07;;;;;;;6.65;3.17;;;;;;;3.10;50.95;100414.03;5009601;28;20493;-48
2024/02/26 07:53:36;;;;;;;9.10;2.87;;;;;;;3.51;50.97;100476.88;5025955;28;20053;-50
2024/02/26 07:56:03;;;;;;;6.90;2.90;;;;;;;3.42;51.22;100469.97;5025230;28;20107;-46
2024/02/26 07:58:28;;;;;;;6.00;3.10;;;;;;;3.27;51.85;100474.13;5027068;28;20045;-54
2024/02/26 08:00:54;;;;;;;8.10;3.25;;;;;;;3.27;51.36;100485.28;5026285;28;20045;-51
2024/02/26 08:03:20;;;;;;;6.88;3.28;;;;;;;2.81;51.41;100439.50;5027016;28;20041;-50
2024/02/26 08:05:46;;;;;;;6.18;2.97;;;;;;;2.93;51.63;100467.88;5026646;28;20513;-46
2024/02/26 08:08:12;;;;;;;12.77;3.53;;;;;;;2.60;51.52;100406.78;5025597;28;20045;-48
2024/02/26 08:10:38;;;;;;;9.77;3.67;;;;;;;2.76;51.89;100425.75;5026740;28;20045;-53
2024/02/26 08:13:07;;;;;;;5.45;2.83;;;;;;;2.95;51.55;100461.88;5027086;28;20044;-51
2024/02/26 08:15:34;;;;;;;7.23;2.60;;;;;;;2.90;51.61;100476.38;5017847;28;20241;-46
2024/02/26 08:18:03;;;;;;;9.65;3.83;;;;;;;2.72;51.83;100462.53;5047628;28;20067;-50
2024/02/26 08:20:29;;;;;;;7.68;2.78;;;;;;;2.73;51.94;100459.97;4991966;28;20665;-48
2024/02/26 08:22:56;;;;;;;9.05;3.67;;;;;;;2.63;52.07;100444.44;5009122;28;20494;-53
2024/02/26 08:25:23;;;;;;;4.93;2.70;;;;;;;2.84;52.13;100460.06;5024251;28;20045;-47
2024/02/26 08:27:49;;;;;;;5.18;2.38;;;;;;;2.79;52.27;100456.59;5024642;28;20067;-53
2024/02/26 08:30:17;;;;;;;7.90;3.60;;;;;;;2.57;52.85;100455.50;5024325;28;20170;-48
2024/02/26 08:32:46;;;;;;;9.00;3.22;;;;;;;2.60;52.62;100450.44;5023325;28;20037;-51
2024/02/26 08:35:11;;;;;;;10.95;3.08;;;;;;;2.85;52.78;100456.66;5025075;28;20076;-52
2024/02/26 08:37:38;;;;;;;5.88;2.58;;;;;;;2.82;52.42;100456.63;5026498;28;20057;-49
2024/02/26 08:40:04;;;;;;;4.53;1.95;;;;;;;2.76;52.33;100456.56;5008352;28;20094;-49
2024/02/26 08:42:30;;;;;;;6.07;3.30;;;;;;;3.11;52.15;100441.47;5037128;28;20063;-53
2024/02/26 08:44:56;;;;;;;7.82;3.08;;;;;;;3.30;51.85;100417.59;5024491;28;20338;-49
2024/02/26 08:47:22;;;;;;;17.88;3.97;;;;;;;3.67;51.50;100442.69;4988863;28;20398;-51
2024/02/26 08:49:48;;;;;;;7.68;2.97;;;;;;;4.04;51.21;100432.56;5013329;28;20056;-49
2024/02/26 08:52:14;;;;;;;4.25;2.42;;;;;;;4.44;50.81;100437.03;5026061;28;20052;-49
2024/02/26 08:54:40;;;;;;;5.95;3.22;;;;;;;4.39;50.46;100431.00;5024804;28;20044;-51
2024/02/26 08:57:06;;;;;;;10.35;2.92;;;;;;;4.34;50.13;100412.13;5049505;28;20546;-51
2024/02/26 08:59:32;;;;;;;7.68;2.45;;;;;;;4.49;49.58;100400.97;5025960;28;20456;-54
2024/02/26 09:01:58;;;;;;;8.13;3.53;;;;;;;4.30;49.48;100423.22;5023431;28;20041;-52
2024/02/26 09:04:24;;;;;;;10.02;2.85;;;;;;;4.47;49.63;100423.28;5026168;28;20034;-50
2024/02/26 09:06:50;;;;;;;4.68;2.20;;;;;;;4.33;48.98;100433.56;4991463;28;20056;-50
2024/02/26 09:09:16;;;;;;;6.47;2.58;;;;;;;4.39;48.96;100433.56;5025628;28;20456;-51
2024/02/26 09:11:42;;;;;;;5.82;2.45;;;;;;;4.51;48.92;100443.88;5023106;28;20057;-49
2024/02/26 09:14:08;;;;;;;7.25;3.10;;;;;;;4.62;48.35;100424.16;5024296;28;20033;-46
2024/02/26 09:16:34;;;;;;;6.35;3.10;;;;;;;4.95;47.53;100437.94;5007727;28;20092;-48
2024/02/26 09:19:00;;;;;;;8.07;2.78;;;;;;;4.98;47.17;100423.34;5057833;28;20810;-52
2024/02/26 09:21:27;;;;;;;11.52;2.40;;;;;;;5.21;47.32;100440.53;5022479;28;20049;-50
2024/02/26 09:23:53;;;;;;;9.60;3.25;;;;;;;5.43;46.83;100422.44;5023519;28;20431;-52
2024/02/26 09:26:19;;;;;;;5.75;2.65;;;;;;;5.64;46.57;100442.19;5024883;28;20278;-49
2024/02/26 09:28:45;;;;;;;5.57;2.13;;;;;;;5.31;46.30;100394.09;5007456;28;20037;-52
2024/02/26 09:31:11;;;;;;;7.18;2.80;;;;;;;5.53;46.28;100434.47;5024312;28;20115;-50
2024/02/26 09:33:37;;;;;;;6.28;2.60;;;;;;;5.46;46.66;100440.47;5025951;28;20041;-50
2024/02/26 09:36:04;;;;;;;5.65;2.35;;;;;;;5.32;46.84;100437.06;5025654;28;20049;-50
2024/02/26 09:38:30;;;;;;;7.32;2.85;;;;;;;5.23;46.84;100431.94;5041017;28;20049;-47
2024/02/26 09:40:57;;;;;;;7.90;3.22;;;;;;;4.99;46.58;100394.13;5025137;28;20051;-52
2024/02/26 09:43:23;;;;;;;7.45;2.65;;;;;;;5.63;46.36;100452.50;5025766;28;20513;-49
2024/02/26 09:45:51;;;;;;;5.63;2.42;;;;;;;5.60;45.83;100427.56;5025613;28;20055;-48
2024/02/26 09:48:17;;;;;;;9.40;2.72;;;;;;;5.33;45.88;100399.25;5025314;28;20095;-52
2024/02/26 09:50:43;;;;;;;11.13;2.95;;;;;;;5.86;45.37;100402.53;5022820;28;20049;-53
2024/02/26 09:53:14;;;;;;;6.00;2.63;;;;;;;6.09;44.92;100432.59;5007156;28;20046;-48
2024/02/26 09:55:40;;;;;;;6.28;2.50;;;;;;;5.89;44.39;100425.78;5023718;28;20532;-54
2024/02/26 09:58:07;;;;;;;3.40;2.10;;;;;;;6.00;44.42;100430.91;5024155;28;20041;-50
2024/02/26 10:00:37;;;;;;;5.03;2.25;;;;;;;5.93;44.34;100439.53;5024386;28;20052;-52
2024/02/26 10:03:04;;;;;;;5.05;2.40;;;;;;;5.97;44.71;100420.59;5028395;28;20049;-52
2024/02/26 10:05:32;;;;;;;6.38;2.45;;;;;;;5.94;44.36;100411.16;5028465;28;20119;-53
2024/02/26 10:08:00;;;;;;;5.22;2.65;;;;;;;6.26;43.68;100417.88;5011659;28;20044;-52
2024/02/26 10:10:28;;;;;;;6.78;2.60;;;;;;;6.96;43.15;100407.94;5029833;28;20045;-52
2024/02/26 10:12:53;;;;;;;7.43;3.13;;;;;;;7.02;42.72;100420.81;5029298;28;20037;-49
2024/02/26 10:15:20;;;;;;;7.25;2.60;;;;;;;6.79;42.63;100449.44;5025575;28;20429;-49
2024/02/26 10:17:45;;;;;;;7.30;2.42;;;;;;;6.35;43.22;100417.84;5012007;28;20076;-55
2024/02/26 10:20:18;;;;;;;5.68;2.28;;;;;;;5.94;43.68;100430.94;5029104;28;20495;-49
2024/02/26 10:22:44;;;;;;;5.57;2.30;;;;;;;5.52;44.16;100406.09;5027548;28;20213;-52
2024/02/26 10:25:10;;;;;;;4.05;2.13;;;;;;;5.43;44.52;100390.66;5011519;28;20052;-53
2024/02/26 10:27:36;;;;;;;6.57;2.50;;;;;;;5.89;44.56;100412.03;5027682;28;20041;-51
2024/02/26 10:30:05;;;;;;;5.82;2.55;;;;;;;6.06;44.14;100418.00;5044191;28;20037;-49
2024/02/26 10:32:32;;;;;;;6.93;2.35;;;;;;;5.86;43.79;100433.50;5060581;28;20048;-51
2024/02/26 10:34:58;;;;;;;7.18;2.85;;;;;;;5.94;44.43;100413.72;5029160;28;20080;-51
2024/02/26 10:37:25;;;;;;;6.20;2.75;;;;;;;6.29;43.66;100404.94;5029264;28;20092;-49
2024/02/26 10:39:50;;;;;;;6.45;2.55;;;;;;;6.76;43.39;100394.31;5028877;28;20053;-48
2024/02/26 10:42:19;;;;;;;6.10;2.72;;;;;;;7.36;42.51;100407.59;5010467;28;20037;-49
2024/02/26 10:44:45;;;;;;;6.75;3.08;;;;;;;7.21;42.67;100411.19;5027463;28;20091;-51
2024/02/26 10:47:11;;;;;;;6.25;2.30;;;;;;;6.78;42.36;100402.91;5027847;28;20041;-50
2024/02/26 10:49:46;;;;;;;4.32;2.10;;;;;;;6.27;42.79;100402.41;5028593;28;20503;-48
2024/02/26 10:52:12;;;;;;;6.50;3.05;;;;;;;5.49;44.51;100401.81;5026878;28;20033;-47
2024/02/26 10:54:40;;;;;;;5.57;2.28;;;;;;;5.15;44.57;100378.66;5060232;28;20033;-47
2024/02/26 10:57:06;;;;;;;7.68;3.08;;;;;;;5.28;45.12;100401.84;5060021;28;20041;-51
2024/02/26 10:59:32;;;;;;;6.85;2.88;;;;;;;5.40;44.69;100403.53;5043997;28;20072;-49
2024/02/26 11:01:58;;;;;;;4.53;2.33;;;;;;;5.43;44.24;100403.53;5010636;28;20041;-50
2024/02/26 11:04:27;;;;;;;5.97;2.25;;;;;;;5.02;45.06;100359.78;5028158;28;20477;-47
2024/02/26 11:06:55;;;;;;;6.68;2.03;;;;;;;5.32;44.77;100394.97;5028472;28;20041;-50
2024/02/26 11:09:21;;;;;;;5.90;2.75;;;;;;;5.55;45.37;100403.50;5042862;28;20053;-51
2024/02/26 11:11:48;;;;;;;6.03;2.45;;;;;;;5.43;44.69;100368.31;5060248;28;20044;-47
2024/02/26 11:14:14;;;;;;;7.72;2.78;;;;;;;6.02;44.68;100381.88;5026398;28;20048;-50
2024/02/26 11:16:42;;;;;;;5.03;2.60;;;;;;;6.07;44.27;100380.97;4990133;28;20058;-48
2024/02/26 11:19:10;;;;;;;4.70;2.70;;;;;;;5.80;43.73;100344.97;5039906;28;20060;-48
2024/02/26 11:21:41;;;;;;;8.50;3.00;;;;;;;6.05;44.08;100387.00;5007161;28;20048;-48
2024/02/26 11:24:12;;;;;;;6.57;3.25;;;;;;;5.91;44.20;100397.41;5024489;28;20095;-48
2024/02/26 11:26:50;;;;;;;9.82;3.05;;;;;;;6.02;44.29;100366.41;5026709;28;20050;-50